sensor_id;sensor_type;location;lat;lon;timestamp;pressure;altitude;pressure_sealevel;temperature;humidity
17615;BME280;8926;49.720;6.576;2023-03-23T00:02:28;98863.50;;;13.30;72.91
17615;BME280;8926;49.720;6.576;2023-03-23T00:04:54;98867.09;;;13.29;72.24
17615;BME280;8926;49.720;6.576;2023-03-23T00:07:22;98862.94;;;13.27;72.12
17615;BME280;8926;49.720;6.576;2023-03-23T00:09:50;98864.03;;;13.24;72.99
17615;BME280;8926;49.720;6.576;2023-03-23T00:12:27;98857.38;;;13.20;73.86
17615;BME280;8926;49.720;6.576;2023-03-23T00:15:04;98860.13;;;13.18;72.78
17615;BME280;8926;49.720;6.576;2023-03-23T00:17:31;98859.28;;;13.18;73.34
17615;BME280;8926;49.720;6.576;2023-03-23T00:19:58;98866.53;;;13.14;73.89
17615;BME280;8926;49.720;6.576;2023-03-23T00:22:23;98863.31;;;13.11;73.21
17615;BME280;8926;49.720;6.576;2023-03-23T00:24:50;98857.13;;;13.12;72.09
17615;BME280;8926;49.720;6.576;2023-03-23T00:27:17;98852.59;;;13.14;71.62
17615;BME280;8926;49.720;6.576;2023-03-23T00:29:42;98852.59;;;13.14;71.57
17615;BME280;8926;49.720;6.576;2023-03-23T00:32:10;98857.38;;;13.20;69.68
17615;BME280;8926;49.720;6.576;2023-03-23T00:34:38;98850.22;;;13.22;69.80
17615;BME280;8926;49.720;6.576;2023-03-23T00:37:07;98848.16;;;13.25;69.36
17615;BME280;8926;49.720;6.576;2023-03-23T00:39:33;98851.06;;;13.22;69.18
17615;BME280;8926;49.720;6.576;2023-03-23T00:42:02;98846.63;;;13.23;69.46
17615;BME280;8926;49.720;6.576;2023-03-23T00:44:29;98852.44;;;13.27;69.16
17615;BME280;8926;49.720;6.576;2023-03-23T00:46:55;98839.97;;;13.19;69.16
17615;BME280;8926;49.720;6.576;2023-03-23T00:49:22;98838.91;;;13.21;69.49
17615;BME280;8926;49.720;6.576;2023-03-23T00:51:56;98836.97;;;13.23;68.74
17615;BME280;8926;49.720;6.576;2023-03-23T00:54:23;98837.09;;;13.22;69.25
17615;BME280;8926;49.720;6.576;2023-03-23T00:56:49;98841.63;;;13.20;69.21
17615;BME280;8926;49.720;6.576;2023-03-23T00:59:15;98830.19;;;13.21;69.54
17615;BME280;8926;49.720;6.576;2023-03-23T01:01:40;98829.09;;;13.23;68.88
17615;BME280;8926;49.720;6.576;2023-03-23T01:04:06;98826.72;;;13.20;69.54
17615;BME280;8926;49.720;6.576;2023-03-23T01:06:35;98820.41;;;13.23;69.23
17615;BME280;8926;49.720;6.576;2023-03-23T01:09:04;98816.53;;;13.27;69.65
17615;BME280;8926;49.720;6.576;2023-03-23T01:11:31;98812.97;;;13.28;70.09
17615;BME280;8926;49.720;6.576;2023-03-23T01:13:56;98811.59;;;13.24;69.63
17615;BME280;8926;49.720;6.576;2023-03-23T01:16:22;98815.66;;;13.17;72.18
17615;BME280;8926;49.720;6.576;2023-03-23T01:18:47;98809.69;;;13.15;71.63
17615;BME280;8926;49.720;6.576;2023-03-23T01:21:14;98813.38;;;13.12;70.92
17615;BME280;8926;49.720;6.576;2023-03-23T01:23:42;98811.47;;;13.14;70.08
17615;BME280;8926;49.720;6.576;2023-03-23T01:26:10;98812.53;;;13.12;70.40
17615;BME280;8926;49.720;6.576;2023-03-23T01:28:36;98814.47;;;13.10;71.83
17615;BME280;8926;49.720;6.576;2023-03-23T01:31:05;98819.81;;;13.08;72.29
17615;BME280;8926;49.720;6.576;2023-03-23T01:33:31;98816.63;;;13.05;73.56
17615;BME280;8926;49.720;6.576;2023-03-23T01:35:57;98806.38;;;13.02;73.04
17615;BME280;8926;49.720;6.576;2023-03-23T01:38:23;98801.41;;;12.99;73.45
17615;BME280;8926;49.720;6.576;2023-03-23T01:40:48;98802.50;;;12.96;74.33
17615;BME280;8926;49.720;6.576;2023-03-23T01:43:15;98801.91;;;12.93;74.92
17615;BME280;8926;49.720;6.576;2023-03-23T01:45:41;98807.50;;;12.88;75.56
17615;BME280;8926;49.720;6.576;2023-03-23T01:48:20;98807.63;;;12.86;74.47
17615;BME280;8926;49.720;6.576;2023-03-23T01:51:03;98797.41;;;12.83;75.23
17615;BME280;8926;49.720;6.576;2023-03-23T01:53:37;98797.41;;;12.83;73.57
17615;BME280;8926;49.720;6.576;2023-03-23T01:56:04;98796.81;;;12.80;74.90
17615;BME280;8926;49.720;6.576;2023-03-23T01:58:32;98804.09;;;12.76;77.34
17615;BME280;8926;49.720;6.576;2023-03-23T02:01:02;98803.66;;;12.71;77.24
17615;BME280;8926;49.720;6.576;2023-03-23T02:03:29;98790.78;;;12.68;77.19
17615;BME280;8926;49.720;6.576;2023-03-23T02:05:57;98790.91;;;12.67;77.22
17615;BME280;8926;49.720;6.576;2023-03-23T02:08:24;98796.16;;;12.67;75.84
17615;BME280;8926;49.720;6.576;2023-03-23T02:10:49;98788.41;;;12.65;77.01
17615;BME280;8926;49.720;6.576;2023-03-23T02:13:15;98779.84;;;12.63;77.13
17615;BME280;8926;49.720;6.576;2023-03-23T02:26:39;98787.72;;;12.52;78.70
17615;BME280;8926;49.720;6.576;2023-03-23T02:29:30;98791.88;;;12.54;78.09
17615;BME280;8926;49.720;6.576;2023-03-23T02:32:07;98783.56;;;12.49;78.59
17615;BME280;8926;49.720;6.576;2023-03-23T02:34:45;98800.63;;;12.44;79.37
17615;BME280;8926;49.720;6.576;2023-03-23T02:37:34;98799.44;;;12.37;79.71
17615;BME280;8926;49.720;6.576;2023-03-23T02:40:06;98801.81;;;12.29;80.07
17615;BME280;8926;49.720;6.576;2023-03-23T02:42:34;98804.91;;;12.22;82.04
17615;BME280;8926;49.720;6.576;2023-03-23T02:45:04;98781.34;;;12.22;81.55
17615;BME280;8926;49.720;6.576;2023-03-23T02:47:31;98782.44;;;12.20;81.50
17615;BME280;8926;49.720;6.576;2023-03-23T02:49:58;98788.75;;;12.17;82.13
17615;BME280;8926;49.720;6.576;2023-03-23T02:52:27;98779.47;;;12.13;82.69
17615;BME280;8926;49.720;6.576;2023-03-23T02:54:55;98785.88;;;12.09;82.71
17615;BME280;8926;49.720;6.576;2023-03-23T02:57:23;98791.38;;;12.06;83.00
17615;BME280;8926;49.720;6.576;2023-03-23T02:59:49;98795.16;;;12.02;84.57
17615;BME280;8926;49.720;6.576;2023-03-23T03:02:22;98803.72;;;12.04;84.22
17615;BME280;8926;49.720;6.576;2023-03-23T03:08:10;98797.06;;;12.00;85.01
17615;BME280;8926;49.720;6.576;2023-03-23T03:10:50;98786.59;;;12.00;84.82
17615;BME280;8926;49.720;6.576;2023-03-23T03:15:57;98788.03;;;12.04;84.19
17615;BME280;8926;49.720;6.576;2023-03-23T03:18:29;98786.59;;;12.00;84.94
17615;BME280;8926;49.720;6.576;2023-03-23T03:21:04;98790.16;;;11.99;84.80
17615;BME280;8926;49.720;6.576;2023-03-23T03:23:32;98781.34;;;12.00;83.93
17615;BME280;8926;49.720;6.576;2023-03-23T03:25:59;98774.22;;;12.02;84.76
17615;BME280;8926;49.720;6.576;2023-03-23T03:28:27;98782.19;;;12.01;84.89
17615;BME280;8926;49.720;6.576;2023-03-23T03:30:57;98800.63;;;11.99;84.62
17615;BME280;8926;49.720;6.576;2023-03-23T03:33:27;98791.38;;;11.95;85.01
17615;BME280;8926;49.720;6.576;2023-03-23T03:35:57;98790.41;;;11.96;85.24
17615;BME280;8926;49.720;6.576;2023-03-23T03:38:24;98796.63;;;11.95;85.15
17615;BME280;8926;49.720;6.576;2023-03-23T03:40:50;98799.47;;;11.92;85.54
17615;BME280;8926;49.720;6.576;2023-03-23T03:43:16;98802.81;;;11.94;85.60
17615;BME280;8926;49.720;6.576;2023-03-23T03:45:41;98804.47;;;11.95;85.27
17615;BME280;8926;49.720;6.576;2023-03-23T03:48:07;98803.75;;;11.93;85.39
17615;BME280;8926;49.720;6.576;2023-03-23T03:50:32;98802.09;;;11.92;85.72
17615;BME280;8926;49.720;6.576;2023-03-23T03:52:58;98799.47;;;11.92;85.79
17615;BME280;8926;49.720;6.576;2023-03-23T03:55:23;98801.13;;;11.93;85.66
17615;BME280;8926;49.720;6.576;2023-03-23T03:57:49;98802.53;;;11.97;85.64
17615;BME280;8926;49.720;6.576;2023-03-23T04:00:14;98786.84;;;11.97;85.13
17615;BME280;8926;49.720;6.576;2023-03-23T04:02:45;98800.63;;;11.99;85.05
17615;BME280;8926;49.720;6.576;2023-03-23T04:05:16;98785.88;;;11.98;85.32
17615;BME280;8926;49.720;6.576;2023-03-23T04:07:43;98793.72;;;11.98;85.26
17615;BME280;8926;49.720;6.576;2023-03-23T04:10:10;98785.31;;;11.95;85.76
17615;BME280;8926;49.720;6.576;2023-03-23T04:12:36;98800.88;;;11.96;85.43
17615;BME280;8926;49.720;6.576;2023-03-23T04:15:03;98799.91;;;11.97;85.57
17615;BME280;8926;49.720;6.576;2023-03-23T04:17:29;98799.91;;;11.97;85.80
17615;BME280;8926;49.720;6.576;2023-03-23T04:19:55;98784.69;;;12.02;85.27
17615;BME280;8926;49.720;6.576;2023-03-23T04:22:23;98778.03;;;11.98;85.53
17615;BME280;8926;49.720;6.576;2023-03-23T04:24:50;98782.31;;;11.99;85.80
17615;BME280;8926;49.720;6.576;2023-03-23T04:27:16;98774.22;;;12.02;85.60
17615;BME280;8926;49.720;6.576;2023-03-23T04:29:42;98781.34;;;12.00;85.77
17615;BME280;8926;49.720;6.576;2023-03-23T04:32:07;98776.97;;;12.01;85.90
17615;BME280;8926;49.720;6.576;2023-03-23T04:34:32;98799.81;;;11.99;85.88
17615;BME280;8926;49.720;6.576;2023-03-23T04:37:00;98811.94;;;12.00;86.80
17615;BME280;8926;49.720;6.576;2023-03-23T04:39:25;98807.78;;;12.08;85.53
17615;BME280;8926;49.720;6.576;2023-03-23T04:41:54;98826.72;;;12.12;86.06
17615;BME280;8926;49.720;6.576;2023-03-23T04:44:19;98810.63;;;12.05;86.14
17615;BME280;8926;49.720;6.576;2023-03-23T04:46:46;98822.78;;;12.06;85.86
17615;BME280;8926;49.720;6.576;2023-03-23T04:49:15;98814.91;;;12.06;85.71
17615;BME280;8926;49.720;6.576;2023-03-23T04:51:46;98812.31;;;12.06;85.98
17615;BME280;8926;49.720;6.576;2023-03-23T04:54:11;98810.88;;;12.02;86.08
17615;BME280;8926;49.720;6.576;2023-03-23T04:56:37;98814.66;;;11.98;86.28
17615;BME280;8926;49.720;6.576;2023-03-23T04:59:03;98817.41;;;11.97;86.12
17615;BME280;8926;49.720;6.576;2023-03-23T05:01:28;98817.56;;;11.95;86.86
17615;BME280;8926;49.720;6.576;2023-03-23T05:03:54;98809.69;;;11.95;86.38
17615;BME280;8926;49.720;6.576;2023-03-23T05:06:19;98801.97;;;11.94;86.67
17615;BME280;8926;49.720;6.576;2023-03-23T05:08:45;98816.56;;;11.96;86.53
17615;BME280;8926;49.720;6.576;2023-03-23T05:11:10;98825.41;;;11.95;86.34
17615;BME280;8926;49.720;6.576;2023-03-23T05:13:36;98832.03;;;11.99;86.38
17615;BME280;8926;49.720;6.576;2023-03-23T05:16:05;98819.22;;;12.07;85.94
17615;BME280;8926;49.720;6.576;2023-03-23T05:18:31;98825.16;;;12.09;85.87
17615;BME280;8926;49.720;6.576;2023-03-23T05:21:03;98821.47;;;12.12;85.28
17615;BME280;8926;49.720;6.576;2023-03-23T05:23:29;98813.97;;;12.07;85.29
17615;BME280;8926;49.720;6.576;2023-03-23T05:25:57;98810.63;;;12.05;85.98
17615;BME280;8926;49.720;6.576;2023-03-23T05:28:26;98797.78;;;12.02;86.09
17615;BME280;8926;49.720;6.576;2023-03-23T05:30:52;98805.88;;;11.99;86.42
17615;BME280;8926;49.720;6.576;2023-03-23T05:33:17;98803.97;;;12.01;87.06
17615;BME280;8926;49.720;6.576;2023-03-23T05:35:42;98800.41;;;12.02;86.59
17615;BME280;8926;49.720;6.576;2023-03-23T05:38:08;98801.34;;;12.01;87.08
17615;BME280;8926;49.720;6.576;2023-03-23T05:40:33;98808.72;;;11.96;87.57
17615;BME280;8926;49.720;6.576;2023-03-23T05:42:58;98813.84;;;11.98;87.64
17615;BME280;8926;49.720;6.576;2023-03-23T05:45:25;98815.38;;;12.00;87.63
17615;BME280;8926;49.720;6.576;2023-03-23T05:47:51;98825.28;;;12.08;87.13
17615;BME280;8926;49.720;6.576;2023-03-23T05:50:17;98836.34;;;12.11;87.22
17615;BME280;8926;49.720;6.576;2023-03-23T05:52:42;98828.84;;;12.07;87.81
17615;BME280;8926;49.720;6.576;2023-03-23T05:55:09;98829.69;;;12.07;87.60
17615;BME280;8926;49.720;6.576;2023-03-23T05:57:34;98831.34;;;12.08;87.38
17615;BME280;8926;49.720;6.576;2023-03-23T06:00:00;98844.19;;;12.11;87.33
17615;BME280;8926;49.720;6.576;2023-03-23T06:02:30;98851.47;;;12.08;87.61
17615;BME280;8926;49.720;6.576;2023-03-23T06:04:56;98856.56;;;12.09;87.84
17615;BME280;8926;49.720;6.576;2023-03-23T06:07:23;98858.72;;;12.15;87.72
17615;BME280;8926;49.720;6.576;2023-03-23T06:09:49;98856.81;;;12.17;87.22
17615;BME280;8926;49.720;6.576;2023-03-23T06:12:16;98842.50;;;12.21;87.06
17615;BME280;8926;49.720;6.576;2023-03-23T06:14:45;98846.13;;;12.20;86.95
17615;BME280;8926;49.720;6.576;2023-03-23T06:17:10;98856.31;;;12.23;86.77
17615;BME280;8926;49.720;6.576;2023-03-23T06:19:35;98851.91;;;12.24;86.76
17615;BME280;8926;49.720;6.576;2023-03-23T06:22:01;98843.94;;;12.26;86.90
17615;BME280;8926;49.720;6.576;2023-03-23T06:24:27;98826.94;;;12.31;86.13
17615;BME280;8926;49.720;6.576;2023-03-23T06:26:52;98847.53;;;12.36;86.01
17615;BME280;8926;49.720;6.576;2023-03-23T06:29:18;98841.56;;;12.34;86.20
17615;BME280;8926;49.720;6.576;2023-03-23T06:31:46;98840.63;;;12.35;86.02
17615;BME280;8926;49.720;6.576;2023-03-23T06:34:13;98860.63;;;12.36;85.97
17615;BME280;8926;49.720;6.576;2023-03-23T06:36:38;98865.88;;;12.36;86.11
17615;BME280;8926;49.720;6.576;2023-03-23T06:39:04;98873.00;;;12.34;86.14
17615;BME280;8926;49.720;6.576;2023-03-23T06:41:31;98881.56;;;12.36;86.02
17615;BME280;8926;49.720;6.576;2023-03-23T06:43:58;98882.06;;;12.41;85.71
17615;BME280;8926;49.720;6.576;2023-03-23T06:46:23;98884.91;;;12.38;85.27
17615;BME280;8926;49.720;6.576;2023-03-23T06:48:48;98888.25;;;12.40;85.55
17615;BME280;8926;49.720;6.576;2023-03-23T06:51:16;98896.31;;;12.48;85.18
17615;BME280;8926;49.720;6.576;2023-03-23T06:53:42;98917.88;;;12.51;85.13
17615;BME280;8926;49.720;6.576;2023-03-23T06:56:07;98930.63;;;12.56;85.14
17615;BME280;8926;49.720;6.576;2023-03-23T06:58:32;98919.66;;;12.62;84.71
17615;BME280;8926;49.720;6.576;2023-03-23T07:00:58;98924.06;;;12.62;84.30
17615;BME280;8926;49.720;6.576;2023-03-23T07:03:24;98921.56;;;12.60;84.44
17615;BME280;8926;49.720;6.576;2023-03-23T07:05:49;98913.94;;;12.57;84.64
17615;BME280;8926;49.720;6.576;2023-03-23T07:08:15;98931.22;;;12.60;84.41
17615;BME280;8926;49.720;6.576;2023-03-23T07:10:41;98924.19;;;12.49;85.35
17615;BME280;8926;49.720;6.576;2023-03-23T07:13:06;98934.66;;;12.49;85.44
17615;BME280;8926;49.720;6.576;2023-03-23T07:15:31;98935.03;;;12.44;86.00
17615;BME280;8926;49.720;6.576;2023-03-23T07:17:57;98929.94;;;12.43;85.70
17615;BME280;8926;49.720;6.576;2023-03-23T07:20:22;98927.75;;;12.48;86.09
17615;BME280;8926;49.720;6.576;2023-03-23T07:22:48;98923.50;;;12.47;86.45
17615;BME280;8926;49.720;6.576;2023-03-23T07:25:13;98931.94;;;12.50;86.58
17615;BME280;8926;49.720;6.576;2023-03-23T07:27:38;98922.03;;;12.54;85.36
17615;BME280;8926;49.720;6.576;2023-03-23T07:30:05;98931.22;;;12.60;85.24
17615;BME280;8926;49.720;6.576;2023-03-23T07:32:30;98928.00;;;12.56;85.28
17615;BME280;8926;49.720;6.576;2023-03-23T07:34:56;98937.75;;;12.54;85.42
17615;BME280;8926;49.720;6.576;2023-03-23T07:37:21;98932.53;;;12.54;85.65
17615;BME280;8926;49.720;6.576;2023-03-23T07:39:48;98929.44;;;12.49;85.98
17615;BME280;8926;49.720;6.576;2023-03-23T07:42:13;98936.59;;;12.47;86.26
17615;BME280;8926;49.720;6.576;2023-03-23T07:44:38;98941.84;;;12.47;86.39
17615;BME280;8926;49.720;6.576;2023-03-23T07:47:04;98928.25;;;12.42;86.81
17615;BME280;8926;49.720;6.576;2023-03-23T07:49:29;98928.50;;;12.39;86.96
17615;BME280;8926;49.720;6.576;2023-03-23T07:51:56;98914.66;;;12.37;87.33
17615;BME280;8926;49.720;6.576;2023-03-23T07:54:21;98902.53;;;12.36;87.89
17615;BME280;8926;49.720;6.576;2023-03-23T07:56:47;98913.38;;;12.42;87.63
17615;BME280;8926;49.720;6.576;2023-03-23T07:59:12;98910.88;;;12.41;87.44
17615;BME280;8926;49.720;6.576;2023-03-23T08:01:39;98915.88;;;12.44;87.80
17615;BME280;8926;49.720;6.576;2023-03-23T08:04:05;98917.28;;;12.48;87.31
17615;BME280;8926;49.720;6.576;2023-03-23T08:06:32;98913.97;;;12.46;87.39
17615;BME280;8926;49.720;6.576;2023-03-23T08:08:58;98922.78;;;12.45;87.90
17615;BME280;8926;49.720;6.576;2023-03-23T08:11:25;98926.69;;;12.50;87.69
17615;BME280;8926;49.720;6.576;2023-03-23T08:13:50;98929.19;;;12.52;87.44
17615;BME280;8926;49.720;6.576;2023-03-23T08:16:16;98931.56;;;12.55;87.73
17615;BME280;8926;49.720;6.576;2023-03-23T08:18:41;98927.06;;;12.57;87.81
17615;BME280;8926;49.720;6.576;2023-03-23T08:21:07;98930.38;;;12.59;87.96
17615;BME280;8926;49.720;6.576;2023-03-23T08:23:34;98924.91;;;12.62;88.20
17615;BME280;8926;49.720;6.576;2023-03-23T08:26:02;98928.84;;;12.68;88.04
17615;BME280;8926;49.720;6.576;2023-03-23T08:28:28;98933.13;;;12.69;87.77
17615;BME280;8926;49.720;6.576;2023-03-23T08:30:53;98938.69;;;12.75;87.56
17615;BME280;8926;49.720;6.576;2023-03-23T08:33:19;98928.22;;;12.75;87.25
17615;BME280;8926;49.720;6.576;2023-03-23T08:35:56;98946.56;;;12.75;87.37
17615;BME280;8926;49.720;6.576;2023-03-23T08:38:22;98949.19;;;12.86;87.07
17615;BME280;8926;49.720;6.576;2023-03-23T08:40:48;98948.94;;;12.89;87.30
17615;BME280;8926;49.720;6.576;2023-03-23T08:43:15;98948.84;;;12.91;86.38
17615;BME280;8926;49.720;6.576;2023-03-23T08:45:40;98954.19;;;12.89;86.58
17615;BME280;8926;49.720;6.576;2023-03-23T08:48:07;98950.84;;;12.87;86.32
17615;BME280;8926;49.720;6.576;2023-03-23T08:50:33;98960.63;;;12.85;86.44
17615;BME280;8926;49.720;6.576;2023-03-23T08:52:58;98958.25;;;12.82;86.53
17615;BME280;8926;49.720;6.576;2023-03-23T08:55:24;98952.53;;;12.88;86.23
17615;BME280;8926;49.720;6.576;2023-03-23T08:57:49;98950.13;;;12.97;85.83
17615;BME280;8926;49.720;6.576;2023-03-23T09:00:17;98967.31;;;12.89;85.91
17615;BME280;8926;49.720;6.576;2023-03-23T09:02:46;98957.78;;;12.88;86.51
17615;BME280;8926;49.720;6.576;2023-03-23T09:05:13;98964.56;;;12.91;86.25
17615;BME280;8926;49.720;6.576;2023-03-23T09:07:40;98963.25;;;12.85;86.63
17615;BME280;8926;49.720;6.576;2023-03-23T09:10:07;98958.72;;;12.87;86.15
17615;BME280;8926;49.720;6.576;2023-03-23T09:12:33;98960.88;;;12.94;86.32
17615;BME280;8926;49.720;6.576;2023-03-23T09:14:58;98956.31;;;13.07;86.13
17615;BME280;8926;49.720;6.576;2023-03-23T09:17:23;98966.78;;;13.07;86.01
17615;BME280;8926;49.720;6.576;2023-03-23T09:19:49;98963.69;;;13.02;86.02
17615;BME280;8926;49.720;6.576;2023-03-23T09:22:14;98951.31;;;13.04;85.98
17615;BME280;8926;49.720;6.576;2023-03-23T09:24:41;98953.44;;;13.10;85.66
17615;BME280;8926;49.720;6.576;2023-03-23T09:27:06;98971.09;;;13.08;85.71
17615;BME280;8926;49.720;6.576;2023-03-23T09:29:32;98964.41;;;13.15;85.77
17615;BME280;8926;49.720;6.576;2023-03-23T09:31:57;98958.13;;;13.17;85.87
17615;BME280;8926;49.720;6.576;2023-03-23T09:34:23;98959.53;;;13.21;85.22
17615;BME280;8926;49.720;6.576;2023-03-23T09:36:49;98967.72;;;13.39;84.79
17615;BME280;8926;49.720;6.576;2023-03-23T09:39:14;98960.59;;;13.62;83.42
17615;BME280;8926;49.720;6.576;2023-03-23T09:41:57;98964.63;;;13.98;82.08
17615;BME280;8926;49.720;6.576;2023-03-23T09:50:12;98977.84;;;14.59;78.97
17615;BME280;8926;49.720;6.576;2023-03-23T09:52:55;98979.88;;;14.46;78.65
17615;BME280;8926;49.720;6.576;2023-03-23T09:55:22;98980.44;;;14.29;78.65
17615;BME280;8926;49.720;6.576;2023-03-23T10:03:05;98981.28;;;14.50;78.66
17615;BME280;8926;49.720;6.576;2023-03-23T10:05:40;98979.16;;;14.44;77.76
17615;BME280;8926;49.720;6.576;2023-03-23T10:08:14;98964.09;;;14.46;77.75
17615;BME280;8926;49.720;6.576;2023-03-23T10:16:11;98968.91;;;14.41;77.14
17615;BME280;8926;49.720;6.576;2023-03-23T10:18:51;98986.78;;;14.47;77.28
17615;BME280;8926;49.720;6.576;2023-03-23T10:21:20;98990.56;;;14.54;76.93
17615;BME280;8926;49.720;6.576;2023-03-23T10:24:15;98986.28;;;14.53;76.94
17615;BME280;8926;49.720;6.576;2023-03-23T10:29:24;98994.69;;;14.56;75.85
17615;BME280;8926;49.720;6.576;2023-03-23T10:31:54;98991.16;;;14.67;75.42
17615;BME280;8926;49.720;6.576;2023-03-23T10:34:28;98997.31;;;14.77;75.01
17615;BME280;8926;49.720;6.576;2023-03-23T10:39:38;99008.69;;;14.87;74.84
17615;BME280;8926;49.720;6.576;2023-03-23T10:42:08;99008.78;;;15.07;74.73
17615;BME280;8926;49.720;6.576;2023-03-23T10:44:34;99004.19;;;15.09;73.81
17615;BME280;8926;49.720;6.576;2023-03-23T10:47:03;99008.78;;;15.07;73.36
17615;BME280;8926;49.720;6.576;2023-03-23T10:49:34;98998.84;;;15.20;73.07
17615;BME280;8926;49.720;6.576;2023-03-23T10:52:25;98999.53;;;15.22;72.84
17615;BME280;8926;49.720;6.576;2023-03-23T10:55:00;98992.66;;;15.31;72.45
17615;BME280;8926;49.720;6.576;2023-03-23T10:57:29;98993.78;;;15.47;71.45
17615;BME280;8926;49.720;6.576;2023-03-23T11:00:04;98986.31;;;15.52;70.84
17615;BME280;8926;49.720;6.576;2023-03-23T11:02:37;98977.91;;;15.58;70.60
17615;BME280;8926;49.720;6.576;2023-03-23T11:05:09;98976.09;;;15.59;69.18
17615;BME280;8926;49.720;6.576;2023-03-23T11:07:38;98970.25;;;15.55;69.18
17615;BME280;8926;49.720;6.576;2023-03-23T11:10:16;98989.09;;;15.60;68.43
17615;BME280;8926;49.720;6.576;2023-03-23T11:12:45;98987.53;;;15.48;68.80
17615;BME280;8926;49.720;6.576;2023-03-23T11:15:31;98978.69;;;15.49;68.86
17615;BME280;8926;49.720;6.576;2023-03-23T11:18:05;98972.19;;;15.53;68.90
17615;BME280;8926;49.720;6.576;2023-03-23T11:20:54;98960.28;;;15.69;69.39
17615;BME280;8926;49.720;6.576;2023-03-23T11:23:28;98943.38;;;15.61;68.87
17615;BME280;8926;49.720;6.576;2023-03-23T11:26:14;98949.72;;;15.49;68.74
17615;BME280;8926;49.720;6.576;2023-03-23T11:28:46;98955.25;;;15.46;68.50
17615;BME280;8926;49.720;6.576;2023-03-23T11:31:12;98939.47;;;15.46;68.55
17615;BME280;8926;49.720;6.576;2023-03-23T11:36:53;98919.22;;;15.37;68.74
17615;BME280;8926;49.720;6.576;2023-03-23T11:39:25;98917.59;;;15.55;68.75
17615;BME280;8926;49.720;6.576;2023-03-23T11:41:51;98919.78;;;15.89;67.00
17615;BME280;8926;49.720;6.576;2023-03-23T11:44:17;98928.66;;;15.88;67.20
17615;BME280;8926;49.720;6.576;2023-03-23T11:47:15;98931.72;;;15.93;67.15
17615;BME280;8926;49.720;6.576;2023-03-23T11:50:01;98919.25;;;15.76;67.45
17615;BME280;8926;49.720;6.576;2023-03-23T11:55:52;98920.38;;;15.83;66.56
17615;BME280;8926;49.720;6.576;2023-03-23T11:58:21;98924.53;;;15.76;67.11
17615;BME280;8926;49.720;6.576;2023-03-23T12:00:53;98923.13;;;15.72;66.86
17615;BME280;8926;49.720;6.576;2023-03-23T12:03:20;98921.19;;;15.54;67.36
17615;BME280;8926;49.720;6.576;2023-03-23T12:05:59;98929.47;;;15.40;68.45
17615;BME280;8926;49.720;6.576;2023-03-23T12:08:49;98938.31;;;15.20;68.88
17615;BME280;8926;49.720;6.576;2023-03-23T12:11:33;98921.97;;;15.07;69.73
17615;BME280;8926;49.720;6.576;2023-03-23T12:16:47;98940.50;;;14.96;71.15
17615;BME280;8926;49.720;6.576;2023-03-23T12:22:21;98960.50;;;14.77;72.31
17615;BME280;8926;49.720;6.576;2023-03-23T12:25:12;98964.81;;;14.78;72.60
17615;BME280;8926;49.720;6.576;2023-03-23T12:27:55;98958.13;;;14.74;72.52
17615;BME280;8926;49.720;6.576;2023-03-23T12:30:32;98937.53;;;14.79;72.33
17615;BME280;8926;49.720;6.576;2023-03-23T12:33:33;98939.88;;;14.82;71.83
17615;BME280;8926;49.720;6.576;2023-03-23T12:38:59;98946.22;;;14.70;72.35
17615;BME280;8926;49.720;6.576;2023-03-23T12:44:52;98931.78;;;14.55;71.88
17615;BME280;8926;49.720;6.576;2023-03-23T12:50:00;98924.97;;;14.32;72.41
17615;BME280;8926;49.720;6.576;2023-03-23T12:52:47;98934.00;;;14.39;72.79
17615;BME280;8926;49.720;6.576;2023-03-23T12:55:37;98933.03;;;14.40;72.89
17615;BME280;8926;49.720;6.576;2023-03-23T12:58:25;98929.47;;;14.41;72.15
17615;BME280;8926;49.720;6.576;2023-03-23T13:06:39;98930.44;;;14.70;71.47
17615;BME280;8926;49.720;6.576;2023-03-23T13:11:40;98925.22;;;14.89;70.83
17615;BME280;8926;49.720;6.576;2023-03-23T13:25:40;98927.22;;;15.07;69.20
17615;BME280;8926;49.720;6.576;2023-03-23T13:33:23;98917.72;;;15.44;67.80
17615;BME280;8926;49.720;6.576;2023-03-23T13:35:49;98914.25;;;15.63;65.84
17615;BME280;8926;49.720;6.576;2023-03-23T13:38:26;98916.22;;;15.71;64.35
17615;BME280;8926;49.720;6.576;2023-03-23T13:40:54;98930.06;;;15.73;63.61
17615;BME280;8926;49.720;6.576;2023-03-23T13:45:52;98914.53;;;15.70;63.25
17615;BME280;8926;49.720;6.576;2023-03-23T13:48:23;98921.75;;;15.68;63.87
17615;BME280;8926;49.720;6.576;2023-03-23T13:50:58;98917.03;;;15.52;63.90
17615;BME280;8926;49.720;6.576;2023-03-23T13:58:52;98913.84;;;15.29;67.30
17615;BME280;8926;49.720;6.576;2023-03-23T14:01:35;98927.22;;;15.07;68.11
17615;BME280;8926;49.720;6.576;2023-03-23T14:04:04;98913.09;;;14.98;67.88
17615;BME280;8926;49.720;6.576;2023-03-23T14:06:35;98915.84;;;14.97;68.51
17615;BME280;8926;49.720;6.576;2023-03-23T14:09:06;98922.78;;;14.98;68.26
17615;BME280;8926;49.720;6.576;2023-03-23T14:11:58;98911.28;;;14.99;68.41
17615;BME280;8926;49.720;6.576;2023-03-23T14:14:31;98911.56;;;14.96;68.50
17615;BME280;8926;49.720;6.576;2023-03-23T14:17:22;98908.38;;;15.02;69.07
17615;BME280;8926;49.720;6.576;2023-03-23T14:19:51;98913.38;;;15.05;69.01
17615;BME280;8926;49.720;6.576;2023-03-23T14:22:38;98908.13;;;15.05;69.13
17615;BME280;8926;49.720;6.576;2023-03-23T14:25:17;98910.63;;;15.06;69.37
17615;BME280;8926;49.720;6.576;2023-03-23T14:27:44;98901.47;;;15.10;68.79
17615;BME280;8926;49.720;6.576;2023-03-23T14:30:20;98886.78;;;15.08;68.02
17615;BME280;8926;49.720;6.576;2023-03-23T14:32:46;98906.84;;;15.09;68.24
17615;BME280;8926;49.720;6.576;2023-03-23T14:35:27;98899.53;;;15.03;67.33
17615;BME280;8926;49.720;6.576;2023-03-23T14:37:55;98895.38;;;15.10;67.48
17615;BME280;8926;49.720;6.576;2023-03-23T14:40:20;98889.56;;;15.16;67.65
17615;BME280;8926;49.720;6.576;2023-03-23T14:42:46;98887.66;;;15.27;67.67
17615;BME280;8926;49.720;6.576;2023-03-23T14:45:15;98879.63;;;15.29;66.45
17615;BME280;8926;49.720;6.576;2023-03-23T14:47:47;98882.94;;;15.31;65.88
17615;BME280;8926;49.720;6.576;2023-03-23T14:50:36;98882.38;;;15.37;65.81
17615;BME280;8926;49.720;6.576;2023-03-23T14:53:16;98879.47;;;15.40;65.29
17615;BME280;8926;49.720;6.576;2023-03-23T14:55:43;98877.94;;;15.47;65.20